Aurora, NE

11:36 AM CDT on March 28, 2017 (GMT -0500)
Aurora Municipal

Weather History for KAUH - February, 2012

Change the Weather History Date:

Saturday, February 18, 2012

  Actual Average Record
Temperature  
Mean Temperature 24 °F -  
Max Temperature 34 °F 40 °F 69 °F (1970)
Min Temperature 15 °F 18 °F -11 °F (1993)
Degree Days  
Heating Degree Days 40    
Moisture  
Dew Point 18 °F    
Average Humidity 75    
Maximum Humidity 93    
Minimum Humidity 49    
Precipitation  
Precipitation 0.00 in - - ()
Sea Level Pressure  
Sea Level Pressure 30.19 in    
Wind  
Wind Speed 4 mph (SW)    
Max Wind Speed 8 mph    
Max Gust Speed -    
Visibility 10 miles    
Events      
Averages and records for this station are not official NWS values.
T = Trace of Precipitation, MM = Missing Value Source: NWS Daily Summary

Daily Weather History Graph

Daily Weather History Graph

Search for Another Location

Airport or City:

Trip Planner

Search our weather history database for the weather conditions in past years. The results will help you decide how hot, cold, wet, or windy it might be!

Date:

Astronomy

Feb. 18, 2012 Rise Set
Actual Time 7:22 AM CST 6:09 PM CST
Civil Twilight 6:54 AM CST 6:37 PM CST
Nautical Twilight 6:22 AM CST 7:09 PM CST
Astronomical Twilight 5:50 AM CST 7:41 PM CST
Moon 5:04 AM CST (2/18) 3:07 PM CST (2/18)
Length of Visible Light 11h 42m
Length of Day
10h 46m
Waning Crescent, 11% of the Moon is Illuminated
Feb 18
Waning Crescent
Feb 21
New
Feb 29
First Quarter
Mar 8
Full
Mar 14
Last Quarter

Hourly Weather History & Observations

Time (CST) Temp. Windchill Dew Point Humidity Pressure Visibility Wind Dir Wind Speed Gust Speed Precip Events Conditions
12:15 AM 23.0 °F 17.0 °F 19.6 °F 87% 30.23 in 10.0 mi North 4.6 mph - N/A   Clear
12:35 AM 23.5 °F 19.1 °F 19.8 °F 85% 30.23 in 10.0 mi North 3.5 mph - N/A   Clear
12:55 AM 23.5 °F 16.4 °F 19.4 °F 84% 30.23 in 10.0 mi NNE 5.8 mph - N/A   Clear
1:15 AM 22.3 °F 13.9 °F 18.3 °F 85% 30.22 in 10.0 mi NNE 6.9 mph - N/A   Clear
1:35 AM 20.5 °F 12.8 °F 16.9 °F 86% 30.22 in 10.0 mi North 5.8 mph - N/A   Clear
1:55 AM 21.4 °F 12.8 °F 17.2 °F 84% 30.22 in 10.0 mi NNE 6.9 mph - N/A   Clear
2:15 AM 19.8 °F 14.7 °F 15.8 °F 85% 30.22 in 10.0 mi North 3.5 mph - N/A   Clear
2:35 AM 21.2 °F 14.9 °F 16.7 °F 83% 30.21 in 10.0 mi North 4.6 mph - N/A   Clear
2:55 AM 20.1 °F 15.2 °F 15.6 °F 83% 30.22 in 10.0 mi NNE 3.5 mph - N/A   Clear
3:15 AM 18.3 °F - 14.9 °F 86% 30.21 in 10.0 mi Calm Calm - N/A   Clear
3:35 AM 19.2 °F - 15.8 °F 87% 30.21 in 10.0 mi Calm Calm - N/A   Clear
3:55 AM 18.9 °F 13.7 °F 15.4 °F 87% 30.20 in 10.0 mi North 3.5 mph - N/A   Clear
4:15 AM 19.4 °F - 14.7 °F 82% 30.21 in 10.0 mi Calm Calm - N/A   Clear
4:35 AM 17.2 °F - 13.6 °F 86% 30.21 in 10.0 mi Calm Calm - N/A   Clear
4:55 AM 15.6 °F 7.0 °F 11.7 °F 84% 30.21 in 10.0 mi NW 5.8 mph - N/A   Clear
5:15 AM 16.0 °F 8.8 °F 12.6 °F 86% 30.20 in 10.0 mi NW 4.6 mph - N/A   Clear
5:35 AM 16.7 °F 11.2 °F 13.6 °F 88% 30.21 in 10.0 mi West 3.5 mph - N/A   Clear
5:55 AM 16.9 °F 11.5 °F 14.2 °F 89% 30.21 in 10.0 mi WNW 3.5 mph - N/A   Clear
6:15 AM 16.7 °F 9.6 °F 14.0 °F 89% 30.22 in 10.0 mi West 4.6 mph - N/A   Clear
6:35 AM 16.2 °F 10.6 °F 13.8 °F 90% 30.22 in 10.0 mi West 3.5 mph - N/A   Clear
6:55 AM 15.6 °F 10.0 °F 13.3 °F 90% 30.23 in 10.0 mi West 3.5 mph - N/A   Clear
7:15 AM 15.1 °F 7.7 °F 12.7 °F 90% 30.24 in 10.0 mi West 4.6 mph - N/A   Clear
7:35 AM 15.1 °F 6.4 °F 13.3 °F 93% 30.25 in 10.0 mi WSW 5.8 mph - N/A   Clear
7:55 AM 15.8 °F 7.2 °F 14.0 °F 93% 30.24 in 10.0 mi West 5.8 mph - N/A   Clear
8:15 AM 16.0 °F 10.4 °F 13.8 °F 91% 30.25 in 10.0 mi West 3.5 mph - N/A   Clear
8:35 AM 17.2 °F 10.2 °F 14.4 °F 88% 30.25 in 10.0 mi West 4.6 mph - N/A   Clear
9:15 AM 21.6 °F - 18.1 °F 87% 30.25 in 10.0 mi Calm Calm - N/A   Clear
9:35 AM 23.2 °F 18.7 °F 18.9 °F 84% 30.25 in 10.0 mi West 3.5 mph - N/A   Clear
9:55 AM 25.9 °F 21.7 °F 20.3 °F 79% 30.25 in 10.0 mi WSW 3.5 mph - N/A   Clear
10:15 AM 28.0 °F - 21.2 °F 76% 30.25 in 10.0 mi Calm Calm - N/A   Clear
10:35 AM 30.0 °F 25.2 °F 21.2 °F 70% 30.24 in 10.0 mi WSW 4.6 mph - N/A   Clear
10:55 AM 31.8 °F 27.3 °F 19.4 °F 60% 30.23 in 10.0 mi WSW 4.6 mph - N/A   Clear
11:15 AM 31.3 °F 25.6 °F 20.5 °F 64% 30.23 in 10.0 mi West 5.8 mph - N/A   Clear
11:35 AM 32.0 °F 27.5 °F 21.2 °F 64% 30.23 in 10.0 mi WSW 4.6 mph - N/A   Clear
11:55 AM 33.1 °F 28.7 °F 19.4 °F 57% 30.22 in 10.0 mi WSW 4.6 mph - N/A   Clear
12:15 PM 33.1 °F 30.0 °F 19.4 °F 57% 30.21 in 10.0 mi West 3.5 mph - N/A   Clear
12:35 PM 33.8 °F - 19.2 °F 55% 30.19 in 10.0 mi Calm Calm - N/A   Clear
12:55 PM 33.8 °F 29.6 °F 16.3 °F 49% 30.18 in 10.0 mi SSE 4.6 mph - N/A   Clear
1:15 PM 34.0 °F - 18.7 °F 54% 30.17 in 10.0 mi Calm Calm - N/A   Clear
1:35 PM 34.3 °F 31.4 °F 20.5 °F 57% 30.16 in 10.0 mi SSW 3.5 mph - N/A   Clear
1:55 PM 34.2 °F 29.0 °F 19.8 °F 56% 30.15 in 10.0 mi SE 5.8 mph - N/A   Clear
2:15 PM 33.3 °F 28.9 °F 18.3 °F 54% 30.15 in 10.0 mi SSE 4.6 mph - N/A   Clear
2:35 PM 34.0 °F 29.8 °F 20.8 °F 59% 30.13 in 10.0 mi SSW 4.6 mph - N/A   Clear
2:55 PM 34.3 °F 30.2 °F 20.5 °F 57% 30.12 in 10.0 mi SW 4.6 mph - N/A   Clear
3:15 PM 34.3 °F 28.4 °F 19.8 °F 55% 30.12 in 10.0 mi SSE 6.9 mph - N/A   Clear
3:35 PM 34.0 °F 28.8 °F 19.2 °F 55% 30.12 in 10.0 mi SSE 5.8 mph - N/A   Clear
3:55 PM 34.7 °F 31.8 °F 19.6 °F 54% 30.12 in 10.0 mi South 3.5 mph - N/A   Scattered Clouds
4:15 PM 34.7 °F 30.6 °F 19.8 °F 54% 30.11 in 10.0 mi SSE 4.6 mph - N/A   Clear
4:35 PM 34.2 °F 28.2 °F 20.7 °F 58% 30.11 in 10.0 mi SSE 6.9 mph - N/A   Clear
4:55 PM 33.8 °F 28.6 °F 21.0 °F 60% 30.11 in 10.0 mi SSE 5.8 mph - N/A   Clear
5:15 PM 33.4 °F 28.1 °F 22.6 °F 65% 30.11 in 10.0 mi SE 5.8 mph - N/A   Clear
5:35 PM 32.2 °F 25.0 °F 24.1 °F 72% 30.11 in 10.0 mi SE 8.1 mph - N/A   Clear
5:55 PM 31.8 °F 25.4 °F 23.5 °F 71% 30.11 in 10.0 mi SE 6.9 mph - N/A   Clear
6:15 PM 30.9 °F 25.2 °F 22.8 °F 72% 30.12 in 10.0 mi SE 5.8 mph - N/A   Clear
6:35 PM 29.8 °F 23.0 °F 23.0 °F 76% 30.12 in 10.0 mi SE 6.9 mph - N/A   Clear
6:55 PM 29.3 °F 22.3 °F 22.6 °F 76% 30.12 in 10.0 mi SE 6.9 mph - N/A   Clear
7:15 PM 28.9 °F 22.8 °F 22.1 °F 76% 30.12 in 10.0 mi SSE 5.8 mph - N/A   Clear
7:35 PM 28.0 °F 20.0 °F 21.9 °F 78% 30.11 in 10.0 mi SE 8.1 mph - N/A   Clear
7:55 PM 28.4 °F 22.2 °F 21.2 °F 74% 30.12 in 10.0 mi SE 5.8 mph - N/A   Clear
8:15 PM 27.5 °F 21.1 °F 20.8 °F 76% 30.11 in 10.0 mi SE 5.8 mph - N/A   Clear
8:35 PM 25.5 °F 17.8 °F 20.3 °F 81% 30.11 in 10.0 mi SE 6.9 mph - N/A   Clear
8:55 PM 26.4 °F 19.8 °F 20.1 °F 77% 30.11 in 10.0 mi SE 5.8 mph - N/A   Clear
9:15 PM 25.0 °F 18.1 °F 19.2 °F 79% 30.11 in 10.0 mi SE 5.8 mph - N/A   Clear
9:35 PM 26.8 °F 21.4 °F 19.8 °F 75% 30.11 in 10.0 mi South 4.6 mph - N/A   Clear
9:55 PM 26.4 °F 19.8 °F 19.4 °F 75% 30.11 in 10.0 mi SSE 5.8 mph - N/A   Clear
10:15 PM 27.1 °F 19.7 °F 19.8 °F 74% 30.11 in 10.0 mi South 6.9 mph - N/A   Clear
10:35 PM 26.8 °F 19.3 °F 19.2 °F 73% 30.10 in 10.0 mi SSE 6.9 mph - N/A   Clear
10:55 PM 24.6 °F 16.7 °F 18.9 °F 79% 30.10 in 10.0 mi SSE 6.9 mph - N/A   Clear
11:15 PM 24.6 °F 16.7 °F 18.9 °F 79% 30.10 in 10.0 mi SE 6.9 mph - N/A   Clear
11:35 PM 24.3 °F 16.3 °F 18.9 °F 80% 30.09 in 10.0 mi SSE 6.9 mph - N/A   Clear
11:55 PM 24.6 °F 16.7 °F 18.9 °F 79% 30.08 in 10.0 mi SSE 6.9 mph - N/A   Clear